PWSweather.com
Personal Weather Stations
Station Observations
KNCCHINA3
Red Tractor Trail, China Grove, NC 28023

Red Tractor TrailChina Grove, NC 28023

Lat: 35.59751, Lon: -80.60201

Elevation: 800

Station Type: Oregon Scientific WMR 968

http://www.joesweathergarage.com

High Low Average
Temperature 55.1°F12.8°C 41.6°F5.3°C 47.5°F8.6°C
Dew Point 46.1°F7.8°C 36.2°F2.3°C 41.3°F5.2°C
Winds 14.4 mph 23.2 kmh Calm Calm 6.0 mph E9.7 kmh E
Wind Gusts 22.0 mph35.4 kmh -- 10.0 mph16.1 kmh
Humidity 98% 59% 81%
Pressure 30.24 in1024.0 mb 30.06 in1017.9 mb -
Precipitation 0.13 in3.3 mm - -
Hour Temp Dew Point Humidity Winds Wind Gusts Pressure Precip Precip Rate Daily Precip Total
12:05 AM 58.0°F14.4°C 41.9°F5.5°C 55% 6.8 mph NE10.9 kmh NE 19.2 mph30.9 kmh 30.12 in1020.0 mb 0.00 in0.0 mm 0.00 in0.0 mm 0.00 in0.0 mm
12:10 AM 57.8°F14.3°C 41.7°F5.4°C 55% 8.8 mph NE14.2 kmh NE 15.6 mph25.1 kmh 30.12 in1020.0 mb 0.00 in0.0 mm 0.00 in0.0 mm 0.00 in0.0 mm
12:19 AM 57.3°F14.1°C 41.2°F5.1°C 55% 11.5 mph NNE18.5 kmh NNE 16.2 mph26.1 kmh 30.15 in1021.0 mb 0.00 in0.0 mm 0.00 in0.0 mm 0.00 in0.0 mm
12:24 AM 56.9°F13.8°C 41.3°F5.2°C 56% 9.6 mph NE15.4 kmh NE 17.4 mph28.0 kmh 30.15 in1021.0 mb 0.00 in0.0 mm 0.00 in0.0 mm 0.00 in0.0 mm
12:29 AM 56.6°F13.7°C 41.5°F5.3°C 57% 7.6 mph NE12.2 kmh NE 17.4 mph28.0 kmh 30.15 in1021.0 mb 0.00 in0.0 mm 0.00 in0.0 mm 0.00 in0.0 mm
12:34 AM 56.6°F13.7°C 42.0°F5.6°C 58% 13.1 mph NNE21.1 kmh NNE 20.2 mph32.5 kmh 30.15 in1021.0 mb 0.00 in0.0 mm 0.00 in0.0 mm 0.00 in0.0 mm
12:39 AM 56.2°F13.4°C 42.1°F5.6°C 59% 13.0 mph ENE20.9 kmh ENE 22.0 mph35.4 kmh 30.15 in1021.0 mb 0.00 in0.0 mm 0.00 in0.0 mm 0.00 in0.0 mm
12:44 AM 56.2°F13.4°C 42.1°F5.6°C 59% 11.9 mph NE19.2 kmh NE 22.0 mph35.4 kmh 30.15 in1021.0 mb 0.00 in0.0 mm 0.00 in0.0 mm 0.00 in0.0 mm
12:50 AM 55.8°F13.2°C 42.1°F5.6°C 60% 9.5 mph NE15.3 kmh NE 22.0 mph35.4 kmh 30.15 in1021.0 mb 0.00 in0.0 mm 0.00 in0.0 mm 0.00 in0.0 mm
12:55 AM 55.5°F13.1°C 41.4°F5.2°C 59% 12.9 mph NE20.8 kmh NE 17.4 mph28.0 kmh 30.15 in1021.0 mb 0.00 in0.0 mm 0.00 in0.0 mm 0.00 in0.0 mm
01:01 AM 55.1°F12.8°C 41.0°F5.0°C 59% 12.7 mph NE20.4 kmh NE 22.0 mph35.4 kmh 30.15 in1021.0 mb 0.00 in0.0 mm 0.00 in0.0 mm 0.00 in0.0 mm
01:05 AM 54.8°F12.7°C 41.2°F5.1°C 60% 8.1 mph NE13.0 kmh NE 22.0 mph35.4 kmh 30.15 in1021.0 mb 0.00 in0.0 mm 0.00 in0.0 mm 0.00 in0.0 mm
01:11 AM 54.4°F12.4°C 41.2°F5.1°C 61% 6.5 mph NE10.5 kmh NE 14.8 mph23.8 kmh 30.15 in1021.0 mb 0.00 in0.0 mm 0.00 in0.0 mm 0.00 in0.0 mm
01:16 AM 54.2°F12.3°C 41.1°F5.1°C 61% 6.6 mph NE10.6 kmh NE 11.6 mph18.7 kmh 30.12 in1020.0 mb 0.00 in0.0 mm 0.00 in0.0 mm 0.00 in0.0 mm
01:21 AM 54.2°F12.3°C 41.1°F5.1°C 61% 9.5 mph NNE15.3 kmh NNE 12.0 mph19.3 kmh 30.12 in1020.0 mb 0.00 in0.0 mm 0.00 in0.0 mm 0.00 in0.0 mm
01:26 AM 54.2°F12.3°C 41.1°F5.1°C 61% 9.3 mph NE15.0 kmh NE 14.8 mph23.8 kmh 30.12 in1020.0 mb 0.00 in0.0 mm 0.00 in0.0 mm 0.00 in0.0 mm
01:31 AM 54.2°F12.3°C 41.1°F5.1°C 61% 10.5 mph NNE16.9 kmh NNE 14.8 mph23.8 kmh 30.15 in1021.0 mb 0.00 in0.0 mm 0.00 in0.0 mm 0.00 in0.0 mm
01:36 AM 54.0°F12.2°C 40.9°F4.9°C 61% 7.0 mph NNE11.3 kmh NNE 12.6 mph20.3 kmh 30.15 in1021.0 mb 0.00 in0.0 mm 0.00 in0.0 mm 0.00 in0.0 mm
01:41 AM 54.0°F12.2°C 40.4°F4.7°C 60% 9.4 mph NE15.1 kmh NE 13.0 mph20.9 kmh 30.15 in1021.0 mb 0.00 in0.0 mm 0.00 in0.0 mm 0.00 in0.0 mm
01:46 AM 54.0°F12.2°C 40.4°F4.7°C 60% 11.2 mph NE18.0 kmh NE 15.6 mph25.1 kmh 30.15 in1021.0 mb 0.00 in0.0 mm 0.00 in0.0 mm 0.00 in0.0 mm
01:52 AM 53.9°F12.2°C 40.8°F4.9°C 61% 5.9 mph NE9.5 kmh NE 15.6 mph25.1 kmh 30.15 in1021.0 mb 0.00 in0.0 mm 0.00 in0.0 mm 0.00 in0.0 mm
01:57 AM 53.9°F12.2°C 40.3°F4.6°C 60% 10.6 mph NE17.1 kmh NE 15.2 mph24.5 kmh 30.15 in1021.0 mb 0.00 in0.0 mm 0.00 in0.0 mm 0.00 in0.0 mm
02:02 AM 53.7°F12.1°C 40.6°F4.8°C 61% 10.3 mph NE16.6 kmh NE 19.2 mph30.9 kmh 30.15 in1021.0 mb 0.00 in0.0 mm 0.00 in0.0 mm 0.00 in0.0 mm
02:07 AM 53.5°F11.9°C 40.4°F4.7°C 61% 10.1 mph NE16.3 kmh NE 19.2 mph30.9 kmh 30.15 in1021.0 mb 0.00 in0.0 mm 0.00 in0.0 mm 0.00 in0.0 mm
02:12 AM 53.5°F11.9°C 40.4°F4.7°C 61% 8.4 mph NE13.5 kmh NE 17.0 mph27.4 kmh 30.18 in1022.0 mb 0.00 in0.0 mm 0.00 in0.0 mm 0.00 in0.0 mm
02:17 AM 53.3°F11.8°C 40.6°F4.8°C 62% 5.5 mph NE8.9 kmh NE 12.6 mph20.3 kmh 30.18 in1022.0 mb 0.00 in0.0 mm 0.00 in0.0 mm 0.00 in0.0 mm
02:22 AM 53.1°F11.7°C 40.4°F4.7°C 62% 8.3 mph NE13.4 kmh NE 12.6 mph20.3 kmh 30.18 in1022.0 mb 0.00 in0.0 mm 0.00 in0.0 mm 0.00 in0.0 mm
02:27 AM 53.1°F11.7°C 40.4°F4.7°C 62% 8.6 mph NE13.8 kmh NE 12.6 mph20.3 kmh 30.15 in1021.0 mb 0.00 in0.0 mm 0.00 in0.0 mm 0.00 in0.0 mm
02:33 AM 53.1°F11.7°C 40.9°F4.9°C 63% 6.1 mph NE9.8 kmh NE 12.0 mph19.3 kmh 30.15 in1021.0 mb 0.00 in0.0 mm 0.00 in0.0 mm 0.00 in0.0 mm
02:38 AM 53.0°F11.7°C 40.8°F4.9°C 63% 9.8 mph NE15.8 kmh NE 13.0 mph20.9 kmh 30.15 in1021.0 mb 0.00 in0.0 mm 0.00 in0.0 mm 0.00 in0.0 mm
02:43 AM 53.0°F11.7°C 40.3°F4.6°C 62% 10.1 mph ENE16.3 kmh ENE 13.0 mph20.9 kmh 30.18 in1022.0 mb 0.00 in0.0 mm 0.00 in0.0 mm 0.00 in0.0 mm
02:48 AM 53.0°F11.7°C 40.3°F4.6°C 62% 7.4 mph E11.9 kmh E 15.6 mph25.1 kmh 30.18 in1022.0 mb 0.00 in0.0 mm 0.00 in0.0 mm 0.00 in0.0 mm
02:53 AM 52.8°F11.6°C 40.2°F4.6°C 62% 8.4 mph NE13.5 kmh NE 15.6 mph25.1 kmh 30.18 in1022.0 mb 0.00 in0.0 mm 0.00 in0.0 mm 0.00 in0.0 mm
02:58 AM 52.8°F11.6°C 39.7°F4.3°C 61% 8.8 mph E14.2 kmh E 14.8 mph23.8 kmh 30.18 in1022.0 mb 0.00 in0.0 mm 0.00 in0.0 mm 0.00 in0.0 mm
03:03 AM 52.6°F11.4°C 39.5°F4.2°C 61% 6.1 mph ENE9.8 kmh ENE 14.8 mph23.8 kmh 30.18 in1022.0 mb 0.00 in0.0 mm 0.00 in0.0 mm 0.00 in0.0 mm
03:08 AM 52.4°F11.3°C 39.4°F4.1°C 61% 6.4 mph ENE10.3 kmh ENE 13.0 mph20.9 kmh 30.18 in1022.0 mb 0.00 in0.0 mm 0.00 in0.0 mm 0.00 in0.0 mm
03:13 AM 52.4°F11.3°C 38.5°F3.6°C 59% 14.4 mph NE23.2 kmh NE 21.0 mph33.8 kmh 30.18 in1022.0 mb 0.00 in0.0 mm 0.00 in0.0 mm 0.00 in0.0 mm
03:18 AM 52.2°F11.2°C 38.3°F3.5°C 59% 9.2 mph NE14.8 kmh NE 21.0 mph33.8 kmh 30.18 in1022.0 mb 0.00 in0.0 mm 0.00 in0.0 mm 0.00 in0.0 mm
03:23 AM 52.2°F11.2°C 38.7°F3.7°C 60% 6.9 mph NE11.1 kmh NE 17.8 mph28.6 kmh 30.18 in1022.0 mb 0.00 in0.0 mm 0.00 in0.0 mm 0.00 in0.0 mm
03:28 AM 52.1°F11.2°C 38.6°F3.7°C 60% 5.9 mph ENE9.5 kmh ENE 12.0 mph19.3 kmh 30.18 in1022.0 mb 0.00 in0.0 mm 0.00 in0.0 mm 0.00 in0.0 mm
03:33 AM 51.9°F11.1°C 38.5°F3.6°C 60% 7.7 mph ENE12.4 kmh ENE 10.8 mph17.4 kmh 30.18 in1022.0 mb 0.00 in0.0 mm 0.00 in0.0 mm 0.00 in0.0 mm
03:38 AM 51.9°F11.1°C 38.5°F3.6°C 60% 6.5 mph ENE10.5 kmh ENE 10.8 mph17.4 kmh 30.18 in1022.0 mb 0.00 in0.0 mm 0.00 in0.0 mm 0.00 in0.0 mm
03:44 AM 51.9°F11.1°C 38.9°F3.8°C 61% 8.7 mph NE14.0 kmh NE 14.8 mph23.8 kmh 30.18 in1022.0 mb 0.00 in0.0 mm 0.00 in0.0 mm 0.00 in0.0 mm
03:49 AM 51.9°F11.1°C 38.5°F3.6°C 60% 9.6 mph ENE15.4 kmh ENE 20.2 mph32.5 kmh 30.18 in1022.0 mb 0.00 in0.0 mm 0.00 in0.0 mm 0.00 in0.0 mm
03:54 AM 51.9°F11.1°C 38.5°F3.6°C 60% 10.9 mph ENE17.5 kmh ENE 20.2 mph32.5 kmh 30.18 in1022.0 mb 0.00 in0.0 mm 0.00 in0.0 mm 0.00 in0.0 mm
03:59 AM 51.7°F10.9°C 38.3°F3.5°C 60% 7.3 mph E11.7 kmh E 13.8 mph22.2 kmh 30.18 in1022.0 mb 0.00 in0.0 mm 0.00 in0.0 mm 0.00 in0.0 mm
04:04 AM 51.7°F10.9°C 38.3°F3.5°C 60% 8.3 mph ENE13.4 kmh ENE 17.0 mph27.4 kmh 30.18 in1022.0 mb 0.00 in0.0 mm 0.00 in0.0 mm 0.00 in0.0 mm
04:09 AM 51.5°F10.8°C 38.5°F3.6°C 61% 6.2 mph ENE10.0 kmh ENE 20.6 mph33.2 kmh 30.18 in1022.0 mb 0.00 in0.0 mm 0.00 in0.0 mm 0.00 in0.0 mm
04:17 AM 51.5°F10.8°C 38.5°F3.6°C 61% 6.4 mph E10.3 kmh E 11.6 mph18.7 kmh 30.18 in1022.0 mb 0.00 in0.0 mm 0.00 in0.0 mm 0.00 in0.0 mm
04:22 AM 51.3°F10.7°C 38.7°F3.7°C 62% 6.1 mph ENE9.8 kmh ENE 11.6 mph18.7 kmh 30.18 in1022.0 mb 0.00 in0.0 mm 0.00 in0.0 mm 0.00 in0.0 mm
04:29 AM 51.3°F10.7°C 38.7°F3.7°C 62% 7.6 mph ENE12.2 kmh ENE 12.0 mph19.3 kmh 30.18 in1022.0 mb 0.00 in0.0 mm 0.00 in0.0 mm 0.00 in0.0 mm
04:34 AM 51.3°F10.7°C 39.1°F3.9°C 63% 8.7 mph ENE14.0 kmh ENE 13.0 mph20.9 kmh 30.18 in1022.0 mb 0.00 in0.0 mm 0.00 in0.0 mm 0.00 in0.0 mm
04:39 AM 51.2°F10.7°C 39.1°F3.9°C 63% 10.5 mph ENE16.9 kmh ENE 15.6 mph25.1 kmh 30.18 in1022.0 mb 0.00 in0.0 mm 0.00 in0.0 mm 0.00 in0.0 mm
04:44 AM 51.2°F10.7°C 39.5°F4.2°C 64% 5.2 mph ENE8.4 kmh ENE 15.6 mph25.1 kmh 30.18 in1022.0 mb 0.00 in0.0 mm 0.00 in0.0 mm 0.00 in0.0 mm
04:49 AM 51.0°F10.6°C 39.3°F4.1°C 64% 6.5 mph ENE10.5 kmh ENE 13.0 mph20.9 kmh 30.18 in1022.0 mb 0.00 in0.0 mm 0.00 in0.0 mm 0.00 in0.0 mm
04:54 AM 51.0°F10.6°C 39.3°F4.1°C 64% 8.1 mph ENE13.0 kmh ENE 13.0 mph20.9 kmh 30.18 in1022.0 mb 0.00 in0.0 mm 0.00 in0.0 mm 0.00 in0.0 mm
04:59 AM 50.8°F10.4°C 39.1°F3.9°C 64% 8.5 mph ENE13.7 kmh ENE 13.0 mph20.9 kmh 30.18 in1022.0 mb 0.00 in0.0 mm 0.00 in0.0 mm 0.00 in0.0 mm
05:04 AM 50.8°F10.4°C 39.5°F4.2°C 65% 6.0 mph E9.7 kmh E 13.0 mph20.9 kmh 30.18 in1022.0 mb 0.00 in0.0 mm 0.00 in0.0 mm 0.00 in0.0 mm
05:09 AM 50.8°F10.4°C 39.1°F3.9°C 64% 4.4 mph E7.1 kmh E 11.2 mph18.0 kmh 30.18 in1022.0 mb 0.00 in0.0 mm 0.00 in0.0 mm 0.00 in0.0 mm
05:14 AM 50.6°F10.3°C 38.9°F3.8°C 64% 5.4 mph E8.7 kmh E 11.2 mph18.0 kmh 30.21 in1023.0 mb 0.00 in0.0 mm 0.00 in0.0 mm 0.00 in0.0 mm
05:20 AM 50.6°F10.3°C 38.9°F3.8°C 64% 5.5 mph ESE8.9 kmh ESE 8.6 mph13.8 kmh 30.21 in1023.0 mb 0.00 in0.0 mm 0.00 in0.0 mm 0.00 in0.0 mm
05:25 AM 50.4°F10.2°C 37.9°F3.3°C 62% 12.4 mph ENE20.0 kmh ENE 17.4 mph28.0 kmh 30.21 in1023.0 mb 0.00 in0.0 mm 0.00 in0.0 mm 0.00 in0.0 mm
05:30 AM 50.4°F10.2°C 37.9°F3.3°C 62% 9.5 mph E15.3 kmh E 17.4 mph28.0 kmh 30.21 in1023.0 mb 0.00 in0.0 mm 0.00 in0.0 mm 0.00 in0.0 mm
05:35 AM 50.4°F10.2°C 37.9°F3.3°C 62% 13.3 mph ENE21.4 kmh ENE 19.6 mph31.5 kmh 30.21 in1023.0 mb 0.00 in0.0 mm 0.00 in0.0 mm 0.00 in0.0 mm
05:40 AM 50.4°F10.2°C 37.9°F3.3°C 62% 3.8 mph E6.1 kmh E 19.6 mph31.5 kmh 30.21 in1023.0 mb 0.00 in0.0 mm 0.00 in0.0 mm 0.00 in0.0 mm
05:45 AM 50.3°F10.2°C 37.8°F3.2°C 62% 6.2 mph E10.0 kmh E 11.6 mph18.7 kmh 30.21 in1023.0 mb 0.00 in0.0 mm 0.00 in0.0 mm 0.00 in0.0 mm
05:52 AM 50.3°F10.2°C 38.2°F3.4°C 63% 7.2 mph E11.6 kmh E 9.8 mph15.8 kmh 30.21 in1023.0 mb 0.00 in0.0 mm 0.00 in0.0 mm 0.00 in0.0 mm
05:57 AM 50.1°F10.1°C 38.0°F3.3°C 63% 5.9 mph E9.5 kmh E 11.2 mph18.0 kmh 30.21 in1023.0 mb 0.00 in0.0 mm 0.00 in0.0 mm 0.00 in0.0 mm
06:03 AM 50.1°F10.1°C 38.4°F3.6°C 64% 7.9 mph ENE12.7 kmh ENE 12.6 mph20.3 kmh 30.21 in1023.0 mb 0.00 in0.0 mm 0.00 in0.0 mm 0.00 in0.0 mm
06:08 AM 50.1°F10.1°C 38.4°F3.6°C 64% 3.7 mph ENE6.0 kmh ENE 12.6 mph20.3 kmh 30.21 in1023.0 mb 0.00 in0.0 mm 0.00 in0.0 mm 0.00 in0.0 mm
06:13 AM 50.1°F10.1°C 38.4°F3.6°C 64% 7.0 mph E11.3 kmh E 12.6 mph20.3 kmh 30.21 in1023.0 mb 0.00 in0.0 mm 0.00 in0.0 mm 0.00 in0.0 mm
06:18 AM 50.1°F10.1°C 38.4°F3.6°C 64% 4.5 mph NE7.2 kmh NE 17.4 mph28.0 kmh 30.21 in1023.0 mb 0.00 in0.0 mm 0.00 in0.0 mm 0.00 in0.0 mm
06:23 AM 49.9°F9.9°C 38.6°F3.7°C 65% 4.8 mph NE7.7 kmh NE 17.4 mph28.0 kmh 30.21 in1023.0 mb 0.00 in0.0 mm 0.00 in0.0 mm 0.00 in0.0 mm
06:28 AM 49.9°F9.9°C 38.6°F3.7°C 65% 6.2 mph ENE10.0 kmh ENE 8.6 mph13.8 kmh 30.21 in1023.0 mb 0.00 in0.0 mm 0.00 in0.0 mm 0.00 in0.0 mm
06:34 AM 49.9°F9.9°C 38.6°F3.7°C 65% 5.1 mph NE8.2 kmh NE 8.6 mph13.8 kmh 30.21 in1023.0 mb 0.00 in0.0 mm 0.00 in0.0 mm 0.00 in0.0 mm
06:39 AM 49.7°F9.8°C 38.8°F3.8°C 66% 9.9 mph ENE15.9 kmh ENE 15.6 mph25.1 kmh 30.21 in1023.0 mb 0.00 in0.0 mm 0.00 in0.0 mm 0.00 in0.0 mm
06:44 AM 49.7°F9.8°C 38.8°F3.8°C 66% 8.5 mph NE13.7 kmh NE 15.6 mph25.1 kmh 30.18 in1022.0 mb 0.00 in0.0 mm 0.00 in0.0 mm 0.00 in0.0 mm
06:49 AM 49.5°F9.7°C 38.6°F3.7°C 66% 8.9 mph ENE14.3 kmh ENE 15.2 mph24.5 kmh 30.18 in1022.0 mb 0.00 in0.0 mm 0.00 in0.0 mm 0.00 in0.0 mm
06:56 AM 49.4°F9.7°C 38.1°F3.4°C 65% 9.0 mph ENE14.5 kmh ENE 14.4 mph23.2 kmh 30.18 in1022.0 mb 0.00 in0.0 mm 0.00 in0.0 mm 0.00 in0.0 mm
07:01 AM 49.4°F9.7°C 38.1°F3.4°C 65% 9.1 mph ENE14.6 kmh ENE 12.6 mph20.3 kmh 30.21 in1023.0 mb 0.00 in0.0 mm 0.00 in0.0 mm 0.00 in0.0 mm
07:06 AM 49.2°F9.6°C 38.0°F3.3°C 65% 5.7 mph ENE9.2 kmh ENE 15.2 mph24.5 kmh 30.21 in1023.0 mb 0.00 in0.0 mm 0.00 in0.0 mm 0.00 in0.0 mm
07:11 AM 49.2°F9.6°C 38.0°F3.3°C 65% 7.8 mph E12.6 kmh E 15.2 mph24.5 kmh 30.21 in1023.0 mb 0.00 in0.0 mm 0.00 in0.0 mm 0.00 in0.0 mm
07:16 AM 49.0°F9.4°C 37.8°F3.2°C 65% 8.7 mph ENE14.0 kmh ENE 12.6 mph20.3 kmh 30.21 in1023.0 mb 0.00 in0.0 mm 0.00 in0.0 mm 0.00 in0.0 mm
07:21 AM 49.0°F9.4°C 37.8°F3.2°C 65% 6.1 mph ENE9.8 kmh ENE 12.6 mph20.3 kmh 30.21 in1023.0 mb 0.00 in0.0 mm 0.00 in0.0 mm 0.00 in0.0 mm
07:26 AM 49.0°F9.4°C 37.8°F3.2°C 65% 6.1 mph ENE9.8 kmh ENE 12.6 mph20.3 kmh 30.21 in1023.0 mb 0.00 in0.0 mm 0.00 in0.0 mm 0.00 in0.0 mm
07:31 AM 48.8°F9.3°C 37.2°F2.9°C 64% 8.7 mph E14.0 kmh E 15.2 mph24.5 kmh 30.21 in1023.0 mb 0.00 in0.0 mm 0.00 in0.0 mm 0.00 in0.0 mm
07:36 AM 48.6°F9.2°C 37.0°F2.8°C 64% 7.3 mph ENE11.7 kmh ENE 15.2 mph24.5 kmh 30.21 in1023.0 mb 0.00 in0.0 mm 0.00 in0.0 mm 0.00 in0.0 mm
07:41 AM 48.6°F9.2°C 37.4°F3.0°C 65% 6.3 mph E10.1 kmh E 13.4 mph21.6 kmh 30.21 in1023.0 mb 0.00 in0.0 mm 0.00 in0.0 mm 0.00 in0.0 mm
07:46 AM 48.6°F9.2°C 37.4°F3.0°C 65% 8.9 mph NE14.3 kmh NE 11.6 mph18.7 kmh 30.21 in1023.0 mb 0.00 in0.0 mm 0.00 in0.0 mm 0.00 in0.0 mm
07:51 AM 48.6°F9.2°C 37.4°F3.0°C 65% 7.1 mph ENE11.4 kmh ENE 11.6 mph18.7 kmh 30.21 in1023.0 mb 0.00 in0.0 mm 0.00 in0.0 mm 0.00 in0.0 mm
07:56 AM 48.6°F9.2°C 37.8°F3.2°C 66% 5.4 mph E8.7 kmh E 11.2 mph18.0 kmh 30.21 in1023.0 mb 0.00 in0.0 mm 0.00 in0.0 mm 0.00 in0.0 mm
08:01 AM 48.6°F9.2°C 37.8°F3.2°C 66% 6.8 mph ENE10.9 kmh ENE 9.4 mph15.1 kmh 30.21 in1023.0 mb 0.00 in0.0 mm 0.00 in0.0 mm 0.00 in0.0 mm
08:06 AM 48.6°F9.2°C 37.8°F3.2°C 66% 5.8 mph ENE9.3 kmh ENE 10.8 mph17.4 kmh 30.21 in1023.0 mb 0.00 in0.0 mm 0.00 in0.0 mm 0.00 in0.0 mm
08:11 AM 48.5°F9.2°C 37.7°F3.2°C 66% 5.3 mph E8.5 kmh E 10.8 mph17.4 kmh 30.21 in1023.0 mb 0.00 in0.0 mm 0.00 in0.0 mm 0.00 in0.0 mm
08:16 AM 48.5°F9.2°C 37.7°F3.2°C 66% 4.8 mph NE7.7 kmh NE 7.6 mph12.2 kmh 30.24 in1024.0 mb 0.00 in0.0 mm 0.00 in0.0 mm 0.00 in0.0 mm
08:21 AM 48.5°F9.2°C 37.7°F3.2°C 66% 6.8 mph NE10.9 kmh NE 11.6 mph18.7 kmh 30.24 in1024.0 mb 0.00 in0.0 mm 0.00 in0.0 mm 0.00 in0.0 mm
08:28 AM 48.5°F9.2°C 37.7°F3.2°C 66% 4.7 mph NE7.6 kmh NE 11.6 mph18.7 kmh 30.24 in1024.0 mb 0.00 in0.0 mm 0.00 in0.0 mm 0.00 in0.0 mm
08:33 AM 48.5°F9.2°C 37.3°F2.9°C 65% 9.1 mph ENE14.6 kmh ENE 14.8 mph23.8 kmh 30.24 in1024.0 mb 0.00 in0.0 mm 0.00 in0.0 mm 0.00 in0.0 mm
08:39 AM 48.5°F9.2°C 36.5°F2.5°C 63% 9.8 mph E15.8 kmh E 16.2 mph26.1 kmh 30.24 in1024.0 mb 0.00 in0.0 mm 0.00 in0.0 mm 0.00 in0.0 mm
09:08 AM 48.6°F9.2°C 36.6°F2.6°C 63% 4.8 mph E7.7 kmh E 11.2 mph18.0 kmh 30.24 in1024.0 mb 0.00 in0.0 mm 0.00 in0.0 mm 0.00 in0.0 mm
09:13 AM 48.6°F9.2°C 36.2°F2.3°C 62% 6.6 mph E10.6 kmh E 10.8 mph17.4 kmh 30.24 in1024.0 mb 0.00 in0.0 mm 0.00 in0.0 mm 0.00 in0.0 mm
09:18 AM 48.6°F9.2°C 36.2°F2.3°C 62% 6.8 mph ENE10.9 kmh ENE 11.6 mph18.7 kmh 30.24 in1024.0 mb 0.00 in0.0 mm 0.00 in0.0 mm 0.00 in0.0 mm
09:24 AM 48.6°F9.2°C 36.2°F2.3°C 62% 6.8 mph E10.9 kmh E 11.6 mph18.7 kmh 30.24 in1024.0 mb 0.00 in0.0 mm 0.00 in0.0 mm 0.00 in0.0 mm
09:29 AM 48.6°F9.2°C 36.2°F2.3°C 62% 5.1 mph NE8.2 kmh NE 11.6 mph18.7 kmh 30.24 in1024.0 mb 0.00 in0.0 mm 0.00 in0.0 mm 0.00 in0.0 mm
09:35 AM 48.6°F9.2°C 36.6°F2.6°C 63% 6.2 mph E10.0 kmh E 12.0 mph19.3 kmh 30.24 in1024.0 mb 0.00 in0.0 mm 0.00 in0.0 mm 0.00 in0.0 mm
09:40 AM 48.6°F9.2°C 36.6°F2.6°C 63% 6.5 mph ENE10.5 kmh ENE 12.0 mph19.3 kmh 30.24 in1024.0 mb 0.00 in0.0 mm 0.00 in0.0 mm 0.00 in0.0 mm
09:45 AM 48.8°F9.3°C 36.8°F2.7°C 63% 6.0 mph E9.7 kmh E 11.2 mph18.0 kmh 30.24 in1024.0 mb 0.00 in0.0 mm 0.00 in0.0 mm 0.00 in0.0 mm
09:50 AM 48.8°F9.3°C 36.8°F2.7°C 63% 5.6 mph ENE9.0 kmh ENE 11.2 mph18.0 kmh 30.24 in1024.0 mb 0.00 in0.0 mm 0.00 in0.0 mm 0.00 in0.0 mm
09:55 AM 48.8°F9.3°C 36.8°F2.7°C 63% 5.8 mph E9.3 kmh E 11.2 mph18.0 kmh 30.24 in1024.0 mb 0.00 in0.0 mm 0.00 in0.0 mm 0.00 in0.0 mm
10:00 AM 48.8°F9.3°C 36.8°F2.7°C 63% 7.6 mph E12.2 kmh E 10.8 mph17.4 kmh 30.24 in1024.0 mb 0.00 in0.0 mm 0.00 in0.0 mm 0.00 in0.0 mm
10:05 AM 49.0°F9.4°C 37.4°F3.0°C 64% 3.2 mph E5.1 kmh E 10.8 mph17.4 kmh 30.24 in1024.0 mb 0.00 in0.0 mm 0.00 in0.0 mm 0.00 in0.0 mm
10:10 AM 48.8°F9.3°C 37.2°F2.9°C 64% 11.5 mph NE18.5 kmh NE 15.2 mph24.5 kmh 30.24 in1024.0 mb 0.00 in0.0 mm 0.00 in0.0 mm 0.00 in0.0 mm
10:15 AM 48.6°F9.2°C 37.0°F2.8°C 64% 7.6 mph ESE12.2 kmh ESE 15.2 mph24.5 kmh 30.24 in1024.0 mb 0.00 in0.0 mm 0.00 in0.0 mm 0.00 in0.0 mm
10:21 AM 48.6°F9.2°C 37.4°F3.0°C 65% 6.7 mph ENE10.8 kmh ENE 12.0 mph19.3 kmh 30.24 in1024.0 mb 0.00 in0.0 mm 0.00 in0.0 mm 0.00 in0.0 mm
10:25 AM 48.8°F9.3°C 37.6°F3.1°C 65% 6.0 mph E9.7 kmh E 12.0 mph19.3 kmh 30.24 in1024.0 mb 0.00 in0.0 mm 0.00 in0.0 mm 0.00 in0.0 mm
10:31 AM 48.6°F9.2°C 38.2°F3.4°C 67% 8.2 mph ENE13.2 kmh ENE 15.6 mph25.1 kmh 30.21 in1023.0 mb 0.00 in0.0 mm 0.00 in0.0 mm 0.00 in0.0 mm
10:36 AM 48.6°F9.2°C 38.5°F3.6°C 68% 5.2 mph ENE8.4 kmh ENE 15.6 mph25.1 kmh 30.21 in1023.0 mb 0.00 in0.0 mm 0.00 in0.0 mm 0.00 in0.0 mm
10:40 AM 48.5°F9.2°C 38.4°F3.6°C 68% 5.8 mph E9.3 kmh E 13.0 mph20.9 kmh 30.21 in1023.0 mb 0.00 in0.0 mm 0.00 in0.0 mm 0.00 in0.0 mm
10:46 AM 48.5°F9.2°C 39.2°F4.0°C 70% 6.9 mph E11.1 kmh E 10.8 mph17.4 kmh 30.24 in1024.0 mb 0.00 in0.0 mm 0.00 in0.0 mm 0.00 in0.0 mm
10:51 AM 48.1°F8.9°C 39.2°F4.0°C 71% 5.7 mph E9.2 kmh E 10.8 mph17.4 kmh 30.24 in1024.0 mb 0.00 in0.0 mm 0.00 in0.0 mm 0.00 in0.0 mm
10:56 AM 47.9°F8.8°C 39.7°F4.3°C 73% 7.3 mph E11.7 kmh E 9.4 mph15.1 kmh 30.24 in1024.0 mb 0.00 in0.0 mm 0.00 in0.0 mm 0.00 in0.0 mm
11:01 AM 47.9°F8.8°C 40.0°F4.4°C 74% 6.0 mph E9.7 kmh E 9.4 mph15.1 kmh 30.21 in1023.0 mb 0.00 in0.0 mm 0.00 in0.0 mm 0.00 in0.0 mm
11:06 AM 47.9°F8.8°C 40.3°F4.6°C 75% 6.3 mph E10.1 kmh E 10.8 mph17.4 kmh 30.21 in1023.0 mb 0.00 in0.0 mm 0.00 in0.0 mm 0.00 in0.0 mm
11:11 AM 47.9°F8.8°C 40.3°F4.6°C 75% 4.4 mph E7.1 kmh E 10.8 mph17.4 kmh 30.21 in1023.0 mb 0.00 in0.0 mm 0.00 in0.0 mm 0.00 in0.0 mm
11:17 AM 47.7°F8.7°C 40.8°F4.9°C 77% 8.6 mph E13.8 kmh E 12.6 mph20.3 kmh 30.21 in1023.0 mb 0.00 in0.0 mm 0.00 in0.0 mm 0.00 in0.0 mm
11:22 AM 47.4°F8.6°C 40.8°F4.9°C 78% 6.6 mph SE10.6 kmh SE 12.6 mph20.3 kmh 30.21 in1023.0 mb 0.00 in0.0 mm 0.00 in0.0 mm 0.00 in0.0 mm
11:27 AM 47.4°F8.6°C 41.2°F5.1°C 79% 5.7 mph E9.2 kmh E 10.8 mph17.4 kmh 30.21 in1023.0 mb 0.00 in0.0 mm 0.00 in0.0 mm 0.00 in0.0 mm
11:32 AM 47.2°F8.4°C 41.3°F5.2°C 80% 4.7 mph E7.6 kmh E 8.6 mph13.8 kmh 30.21 in1023.0 mb 0.00 in0.0 mm 0.00 in0.0 mm 0.00 in0.0 mm
11:37 AM 46.8°F8.2°C 41.5°F5.3°C 82% 9.2 mph ENE14.8 kmh ENE 13.0 mph20.9 kmh 30.21 in1023.0 mb 0.00 in0.0 mm 0.00 in0.0 mm 0.00 in0.0 mm
11:42 AM 46.7°F8.2°C 41.7°F5.4°C 83% 6.4 mph E10.3 kmh E 13.0 mph20.9 kmh 30.21 in1023.0 mb 0.00 in0.0 mm 0.00 in0.0 mm 0.00 in0.0 mm
11:47 AM 46.5°F8.1°C 41.8°F5.4°C 84% 5.8 mph E9.3 kmh E 12.0 mph19.3 kmh 30.21 in1023.0 mb 0.00 in0.0 mm 0.00 in0.0 mm 0.00 in0.0 mm
11:52 AM 46.5°F8.1°C 42.1°F5.6°C 85% 7.7 mph ENE12.4 kmh ENE 12.6 mph20.3 kmh 30.21 in1023.0 mb 0.00 in0.0 mm 0.00 in0.0 mm 0.00 in0.0 mm
11:57 AM 46.1°F7.8°C 42.0°F5.6°C 86% 4.2 mph ENE6.8 kmh ENE 12.6 mph20.3 kmh 30.21 in1023.0 mb 0.00 in0.0 mm 0.00 in0.0 mm 0.00 in0.0 mm
12:02 PM 46.1°F7.8°C 42.0°F5.6°C 86% 4.5 mph E7.2 kmh E 7.6 mph12.2 kmh 30.21 in1023.0 mb 0.00 in0.0 mm 0.00 in0.0 mm 0.00 in0.0 mm
12:08 PM 46.1°F7.8°C 42.3°F5.7°C 87% 2.7 mph ENE4.3 kmh ENE 5.8 mph9.3 kmh 30.21 in1023.0 mb 0.00 in0.0 mm 0.00 in0.0 mm 0.00 in0.0 mm
12:13 PM 46.1°F7.8°C 42.6°F5.9°C 88% 4.6 mph NE7.4 kmh NE 5.8 mph9.3 kmh 30.18 in1022.0 mb 0.00 in0.0 mm 0.00 in0.0 mm 0.00 in0.0 mm
12:18 PM 46.1°F7.8°C 43.5°F6.4°C 91% 6.8 mph NE10.9 kmh NE 8.6 mph13.8 kmh 30.18 in1022.0 mb 0.00 in0.0 mm 0.00 in0.0 mm 0.00 in0.0 mm
12:23 PM 45.9°F7.7°C 43.6°F6.4°C 92% 6.0 mph NE9.7 kmh NE 8.6 mph13.8 kmh 30.18 in1022.0 mb 0.00 in0.0 mm 0.00 in0.0 mm 0.00 in0.0 mm
12:28 PM 46.1°F7.8°C 43.8°F6.6°C 92% 3.6 mph ENE5.8 kmh ENE 8.6 mph13.8 kmh 30.24 in1024.0 mb 0.00 in0.0 mm 0.00 in0.0 mm 0.00 in0.0 mm
12:33 PM 46.1°F7.8°C 44.1°F6.7°C 93% 7.0 mph NE11.3 kmh NE 9.8 mph15.8 kmh 30.24 in1024.0 mb 0.00 in0.0 mm 0.00 in0.0 mm 0.00 in0.0 mm
12:38 PM 45.9°F7.7°C 43.9°F6.6°C 93% 5.7 mph NE9.2 kmh NE 9.8 mph15.8 kmh 30.24 in1024.0 mb 0.00 in0.0 mm 0.00 in0.0 mm 0.00 in0.0 mm
12:43 PM 45.9°F7.7°C 44.1°F6.7°C 94% 7.0 mph NE11.3 kmh NE 9.8 mph15.8 kmh 30.21 in1023.0 mb 0.00 in0.0 mm 0.00 in0.0 mm 0.00 in0.0 mm
12:48 PM 45.9°F7.7°C 44.1°F6.7°C 94% 5.6 mph ENE9.0 kmh ENE 8.0 mph12.9 kmh 30.21 in1023.0 mb 0.00 in0.0 mm 0.00 in0.0 mm 0.00 in0.0 mm
12:53 PM 45.9°F7.7°C 44.4°F6.9°C 95% 6.3 mph NE10.1 kmh NE 8.0 mph12.9 kmh 30.21 in1023.0 mb 0.00 in0.0 mm 0.00 in0.0 mm 0.00 in0.0 mm
12:58 PM 45.9°F7.7°C 44.7°F7.1°C 96% 7.1 mph ENE11.4 kmh ENE 8.0 mph12.9 kmh 30.18 in1022.0 mb 0.00 in0.0 mm 0.00 in0.0 mm 0.00 in0.0 mm
01:03 PM 45.9°F7.7°C 44.7°F7.1°C 96% 4.2 mph NE6.8 kmh NE 8.6 mph13.8 kmh 30.18 in1022.0 mb 0.00 in0.0 mm 0.00 in0.0 mm 0.00 in0.0 mm
01:08 PM 45.9°F7.7°C 44.7°F7.1°C 96% 4.6 mph NE7.4 kmh NE 8.6 mph13.8 kmh 30.18 in1022.0 mb 0.00 in0.0 mm 0.00 in0.0 mm 0.00 in0.0 mm
01:13 PM 45.9°F7.7°C 44.7°F7.1°C 96% 3.4 mph ENE5.5 kmh ENE 8.0 mph12.9 kmh 30.15 in1021.0 mb 0.00 in0.0 mm 0.00 in0.0 mm 0.00 in0.0 mm
01:19 PM 45.9°F7.7°C 44.7°F7.1°C 96% 5.2 mph ENE8.4 kmh ENE 7.6 mph12.2 kmh 30.15 in1021.0 mb 0.00 in0.0 mm 0.00 in0.0 mm 0.00 in0.0 mm
01:24 PM 45.8°F7.7°C 44.6°F7.0°C 96% 3.8 mph E6.1 kmh E 7.2 mph11.6 kmh 30.15 in1021.0 mb 0.00 in0.0 mm 0.00 in0.0 mm 0.00 in0.0 mm
01:29 PM 45.9°F7.7°C 44.7°F7.1°C 96% 2.9 mph E4.7 kmh E 5.8 mph9.3 kmh 30.15 in1021.0 mb 0.00 in0.0 mm 0.00 in0.0 mm 0.00 in0.0 mm
01:34 PM 45.8°F7.7°C 44.6°F7.0°C 96% 3.2 mph ENE5.1 kmh ENE 5.4 mph8.7 kmh 30.15 in1021.0 mb 0.00 in0.0 mm 0.00 in0.0 mm 0.00 in0.0 mm
01:39 PM 45.8°F7.7°C 44.9°F7.2°C 97% 5.5 mph ENE8.9 kmh ENE 7.2 mph11.6 kmh 30.15 in1021.0 mb 0.00 in0.0 mm 0.00 in0.0 mm 0.00 in0.0 mm
01:44 PM 45.8°F7.7°C 44.9°F7.2°C 97% Calm Calm 7.2 mph11.6 kmh 30.15 in1021.0 mb 0.00 in0.0 mm 0.00 in0.0 mm 0.00 in0.0 mm
01:49 PM 45.9°F7.7°C 45.0°F7.2°C 97% 3.2 mph NNE5.1 kmh NNE 5.0 mph8.0 kmh 30.15 in1021.0 mb 0.00 in0.0 mm 0.00 in0.0 mm 0.00 in0.0 mm
01:54 PM 45.8°F7.7°C 44.9°F7.2°C 97% 3.3 mph NE5.3 kmh NE 7.2 mph11.6 kmh 30.15 in1021.0 mb 0.04 in1.0 mm 0.48 in12.2 mm 0.04 in1.0 mm
02:00 PM 45.6°F7.6°C 44.7°F7.1°C 97% 4.7 mph NE7.6 kmh NE 7.2 mph11.6 kmh 30.18 in1022.0 mb 0.00 in0.0 mm 0.00 in0.0 mm 0.04 in1.0 mm
02:05 PM 45.4°F7.4°C 44.8°F7.1°C 98% 4.6 mph NNE7.4 kmh NNE 5.8 mph9.3 kmh 30.18 in1022.0 mb 0.00 in0.0 mm 0.00 in0.0 mm 0.04 in1.0 mm
02:10 PM 45.2°F7.3°C 44.6°F7.0°C 98% 4.1 mph ENE6.6 kmh ENE 5.8 mph9.3 kmh 30.18 in1022.0 mb 0.00 in0.0 mm 0.00 in0.0 mm 0.04 in1.0 mm
02:15 PM 45.4°F7.4°C 44.8°F7.1°C 98% 3.3 mph ENE5.3 kmh ENE 5.4 mph8.7 kmh 30.12 in1020.0 mb 0.00 in0.0 mm 0.00 in0.0 mm 0.04 in1.0 mm
02:20 PM 45.4°F7.4°C 44.8°F7.1°C 98% 3.8 mph NE6.1 kmh NE 5.4 mph8.7 kmh 30.12 in1020.0 mb 0.00 in0.0 mm 0.00 in0.0 mm 0.04 in1.0 mm
02:25 PM 45.4°F7.4°C 44.8°F7.1°C 98% 2.9 mph ENE4.7 kmh ENE 5.4 mph8.7 kmh 30.12 in1020.0 mb 0.00 in0.0 mm 0.00 in0.0 mm 0.04 in1.0 mm
02:30 PM 45.4°F7.4°C 44.8°F7.1°C 98% 2.4 mph ENE3.9 kmh ENE 5.0 mph8.0 kmh 30.12 in1020.0 mb 0.00 in0.0 mm 0.00 in0.0 mm 0.04 in1.0 mm
02:35 PM 45.6°F7.6°C 45.0°F7.2°C 98% 3.0 mph ENE4.8 kmh ENE 4.0 mph6.4 kmh 30.12 in1020.0 mb 0.00 in0.0 mm 0.00 in0.0 mm 0.04 in1.0 mm
02:41 PM 45.6°F7.6°C 45.0°F7.2°C 98% 2.3 mph ENE3.7 kmh ENE 4.0 mph6.4 kmh 30.12 in1020.0 mb 0.00 in0.0 mm 0.00 in0.0 mm 0.04 in1.0 mm
02:46 PM 45.8°F7.7°C 45.2°F7.3°C 98% 2.1 mph ENE3.4 kmh ENE 4.0 mph6.4 kmh 30.12 in1020.0 mb 0.00 in0.0 mm 0.00 in0.0 mm 0.04 in1.0 mm
02:51 PM 45.9°F7.7°C 45.3°F7.4°C 98% 2.6 mph ENE4.2 kmh ENE 2.6 mph4.2 kmh 30.12 in1020.0 mb 0.00 in0.0 mm 0.00 in0.0 mm 0.04 in1.0 mm
02:56 PM 45.9°F7.7°C 45.3°F7.4°C 98% Calm Calm 4.4 mph7.1 kmh 30.12 in1020.0 mb 0.04 in1.0 mm 0.48 in12.2 mm 0.09 in2.3 mm
03:02 PM 45.9°F7.7°C 45.3°F7.4°C 98% 2.8 mph ENE4.5 kmh ENE 4.4 mph7.1 kmh 30.09 in1019.0 mb 0.00 in0.0 mm 0.00 in0.0 mm 0.09 in2.3 mm
03:07 PM 45.9°F7.7°C 45.3°F7.4°C 98% 2.5 mph ENE4.0 kmh ENE 4.0 mph6.4 kmh 30.09 in1019.0 mb 0.00 in0.0 mm 0.00 in0.0 mm 0.09 in2.3 mm
03:12 PM 45.8°F7.7°C 45.2°F7.3°C 98% 2.4 mph ENE3.9 kmh ENE 4.0 mph6.4 kmh 30.09 in1019.0 mb 0.00 in0.0 mm 0.00 in0.0 mm 0.09 in2.3 mm
03:17 PM 45.8°F7.7°C 45.2°F7.3°C 98% 2.2 mph ENE3.5 kmh ENE 4.0 mph6.4 kmh 30.09 in1019.0 mb 0.00 in0.0 mm 0.00 in0.0 mm 0.09 in2.3 mm
03:22 PM 45.9°F7.7°C 45.3°F7.4°C 98% 3.5 mph NE5.6 kmh NE 5.8 mph9.3 kmh 30.09 in1019.0 mb 0.00 in0.0 mm 0.00 in0.0 mm 0.09 in2.3 mm
03:27 PM 45.9°F7.7°C 45.3°F7.4°C 98% 2.8 mph NE4.5 kmh NE 5.8 mph9.3 kmh 30.09 in1019.0 mb 0.00 in0.0 mm 0.00 in0.0 mm 0.09 in2.3 mm
03:33 PM 45.9°F7.7°C 45.3°F7.4°C 98% 2.4 mph WNW3.9 kmh WNW 4.0 mph6.4 kmh 30.09 in1019.0 mb 0.00 in0.0 mm 0.00 in0.0 mm 0.09 in2.3 mm
03:38 PM 46.1°F7.8°C 45.5°F7.5°C 98% 2.2 mph S3.5 kmh S 4.0 mph6.4 kmh 30.09 in1019.0 mb 0.00 in0.0 mm 0.00 in0.0 mm 0.09 in2.3 mm
03:43 PM 46.1°F7.8°C 45.5°F7.5°C 98% Calm Calm 2.6 mph4.2 kmh 30.09 in1019.0 mb 0.00 in0.0 mm 0.00 in0.0 mm 0.09 in2.3 mm
03:48 PM 46.3°F7.9°C 45.7°F7.6°C 98% 2.4 mph E3.9 kmh E 2.6 mph4.2 kmh 30.09 in1019.0 mb 0.04 in1.0 mm 0.48 in12.2 mm 0.13 in3.3 mm
03:55 PM 46.3°F7.9°C 45.7°F7.6°C 98% Calm Calm 2.6 mph4.2 kmh 30.09 in1019.0 mb 0.04 in1.0 mm 0.00 in0.0 mm 0.13 in3.3 mm
04:00 PM 46.3°F7.9°C 45.7°F7.6°C 98% 2.4 mph ENE3.9 kmh ENE 5.0 mph8.0 kmh 30.06 in1017.9 mb 0.00 in0.0 mm 0.00 in0.0 mm 0.13 in3.3 mm
04:05 PM 46.3°F7.9°C 45.7°F7.6°C 98% 2.8 mph ENE4.5 kmh ENE 5.0 mph8.0 kmh 30.06 in1017.9 mb 0.00 in0.0 mm 0.00 in0.0 mm 0.13 in3.3 mm
04:10 PM 46.5°F8.1°C 45.9°F7.7°C 98% 3.4 mph ENE5.5 kmh ENE 4.4 mph7.1 kmh 30.06 in1017.9 mb 0.00 in0.0 mm 0.00 in0.0 mm 0.13 in3.3 mm
04:15 PM 46.5°F8.1°C 45.9°F7.7°C 98% 3.0 mph ENE4.8 kmh ENE 5.8 mph9.3 kmh 30.12 in1020.0 mb 0.00 in0.0 mm 0.00 in0.0 mm 0.13 in3.3 mm
04:20 PM 46.3°F7.9°C 45.7°F7.6°C 98% 2.6 mph ENE4.2 kmh ENE 5.8 mph9.3 kmh 30.12 in1020.0 mb 0.00 in0.0 mm 0.00 in0.0 mm 0.13 in3.3 mm
04:26 PM 46.5°F8.1°C 45.9°F7.7°C 98% 3.3 mph ENE5.3 kmh ENE 5.8 mph9.3 kmh 30.12 in1020.0 mb 0.00 in0.0 mm 0.00 in0.0 mm 0.13 in3.3 mm
04:31 PM 46.3°F7.9°C 45.7°F7.6°C 98% 4.3 mph ENE6.9 kmh ENE 5.8 mph9.3 kmh 30.09 in1019.0 mb 0.00 in0.0 mm 0.00 in0.0 mm 0.13 in3.3 mm
04:36 PM 46.5°F8.1°C 45.9°F7.7°C 98% 2.6 mph E4.2 kmh E 5.8 mph9.3 kmh 30.09 in1019.0 mb 0.00 in0.0 mm 0.00 in0.0 mm 0.13 in3.3 mm
04:41 PM 46.7°F8.2°C 46.1°F7.8°C 98% 3.5 mph ESE5.6 kmh ESE 4.4 mph7.1 kmh 30.09 in1019.0 mb 0.00 in0.0 mm 0.00 in0.0 mm 0.13 in3.3 mm
04:46 PM 46.7°F8.2°C 46.1°F7.8°C 98% 3.0 mph E4.8 kmh E 4.4 mph7.1 kmh 30.06 in1017.9 mb 0.00 in0.0 mm 0.00 in0.0 mm 0.13 in3.3 mm
04:51 PM 46.3°F7.9°C 45.7°F7.6°C 98% 5.9 mph N9.5 kmh N 6.8 mph10.9 kmh 30.06 in1017.9 mb 0.00 in0.0 mm 0.00 in0.0 mm 0.13 in3.3 mm
04:57 PM 46.1°F7.8°C 45.5°F7.5°C 98% 6.1 mph N9.8 kmh N 7.2 mph11.6 kmh 30.09 in1019.0 mb 0.00 in0.0 mm 0.00 in0.0 mm 0.13 in3.3 mm
05:02 PM 45.9°F7.7°C 45.3°F7.4°C 98% 5.7 mph N9.2 kmh N 10.8 mph17.4 kmh 30.09 in1019.0 mb 0.00 in0.0 mm 0.00 in0.0 mm 0.13 in3.3 mm
05:07 PM 45.8°F7.7°C 45.2°F7.3°C 98% 3.8 mph N6.1 kmh N 10.8 mph17.4 kmh 30.09 in1019.0 mb 0.00 in0.0 mm 0.00 in0.0 mm 0.13 in3.3 mm
05:12 PM 45.8°F7.7°C 45.2°F7.3°C 98% 3.7 mph NE6.0 kmh NE 8.0 mph12.9 kmh 30.06 in1017.9 mb 0.00 in0.0 mm 0.00 in0.0 mm 0.13 in3.3 mm
05:18 PM 45.4°F7.4°C 44.8°F7.1°C 98% 3.8 mph NE6.1 kmh NE 7.2 mph11.6 kmh 30.06 in1017.9 mb 0.00 in0.0 mm 0.00 in0.0 mm 0.13 in3.3 mm
05:23 PM 45.6°F7.6°C 45.0°F7.2°C 98% 1.8 mph NE2.9 kmh NE 7.2 mph11.6 kmh 30.06 in1017.9 mb 0.00 in0.0 mm 0.00 in0.0 mm 0.13 in3.3 mm
05:28 PM 45.4°F7.4°C 44.8°F7.1°C 98% 2.9 mph NE4.7 kmh NE 4.0 mph6.4 kmh 30.09 in1019.0 mb 0.00 in0.0 mm 0.00 in0.0 mm 0.13 in3.3 mm
05:33 PM 45.4°F7.4°C 44.8°F7.1°C 98% 5.2 mph N8.4 kmh N 5.8 mph9.3 kmh 30.09 in1019.0 mb 0.00 in0.0 mm 0.00 in0.0 mm 0.13 in3.3 mm
05:38 PM 45.4°F7.4°C 44.8°F7.1°C 98% 3.4 mph NE5.5 kmh NE 5.8 mph9.3 kmh 30.09 in1019.0 mb 0.00 in0.0 mm 0.00 in0.0 mm 0.13 in3.3 mm
05:43 PM 45.2°F7.3°C 44.6°F7.0°C 98% 4.1 mph NE6.6 kmh NE 5.8 mph9.3 kmh 30.09 in1019.0 mb 0.00 in0.0 mm 0.00 in0.0 mm 0.13 in3.3 mm
05:48 PM 45.2°F7.3°C 44.6°F7.0°C 98% 4.7 mph N7.6 kmh N 5.8 mph9.3 kmh 30.09 in1019.0 mb 0.00 in0.0 mm 0.00 in0.0 mm 0.13 in3.3 mm
05:53 PM 45.2°F7.3°C 44.6°F7.0°C 98% 4.0 mph NE6.4 kmh NE 5.8 mph9.3 kmh 30.09 in1019.0 mb 0.00 in0.0 mm 0.00 in0.0 mm 0.13 in3.3 mm
05:59 PM 45.2°F7.3°C 44.6°F7.0°C 98% 2.3 mph NE3.7 kmh NE 5.4 mph8.7 kmh 30.09 in1019.0 mb 0.00 in0.0 mm 0.00 in0.0 mm 0.13 in3.3 mm
06:04 PM 45.2°F7.3°C 44.6°F7.0°C 98% 5.3 mph NW8.5 kmh NW 5.8 mph9.3 kmh 30.09 in1019.0 mb 0.00 in0.0 mm 0.00 in0.0 mm 0.13 in3.3 mm
06:09 PM 45.0°F7.2°C 44.4°F6.9°C 98% 4.1 mph ENE6.6 kmh ENE 6.8 mph10.9 kmh 30.09 in1019.0 mb 0.00 in0.0 mm 0.00 in0.0 mm 0.13 in3.3 mm
06:14 PM 45.0°F7.2°C 44.4°F6.9°C 98% 2.6 mph ENE4.2 kmh ENE 6.8 mph10.9 kmh 30.09 in1019.0 mb 0.00 in0.0 mm 0.00 in0.0 mm 0.13 in3.3 mm
06:19 PM 45.0°F7.2°C 44.4°F6.9°C 98% 3.0 mph E4.8 kmh E 5.4 mph8.7 kmh 30.09 in1019.0 mb 0.00 in0.0 mm 0.00 in0.0 mm 0.13 in3.3 mm
06:24 PM 45.0°F7.2°C 44.4°F6.9°C 98% 2.5 mph ESE4.0 kmh ESE 4.0 mph6.4 kmh 30.09 in1019.0 mb 0.00 in0.0 mm 0.00 in0.0 mm 0.13 in3.3 mm
06:30 PM 45.0°F7.2°C 44.4°F6.9°C 98% 3.2 mph NE5.1 kmh NE 4.4 mph7.1 kmh 30.09 in1019.0 mb 0.00 in0.0 mm 0.00 in0.0 mm 0.13 in3.3 mm
06:35 PM 45.0°F7.2°C 44.4°F6.9°C 98% 3.1 mph ENE5.0 kmh ENE 4.4 mph7.1 kmh 30.09 in1019.0 mb 0.00 in0.0 mm 0.00 in0.0 mm 0.13 in3.3 mm
07:15 PM 45.2°F7.3°C 44.6°F7.0°C 98% 3.4 mph SE5.5 kmh SE 5.0 mph8.0 kmh 30.06 in1017.9 mb 0.00 in0.0 mm 0.00 in0.0 mm 0.13 in3.3 mm
07:20 PM 45.4°F7.4°C 44.8°F7.1°C 98% 6.9 mph N11.1 kmh N 9.8 mph15.8 kmh 30.06 in1017.9 mb 0.00 in0.0 mm 0.00 in0.0 mm 0.13 in3.3 mm
07:25 PM 45.2°F7.3°C 44.6°F7.0°C 98% 4.8 mph NE7.7 kmh NE 9.8 mph15.8 kmh 30.06 in1017.9 mb 0.00 in0.0 mm 0.00 in0.0 mm 0.13 in3.3 mm
07:30 PM 45.4°F7.4°C 44.8°F7.1°C 98% 9.5 mph NNE15.3 kmh NNE 11.6 mph18.7 kmh 30.09 in1019.0 mb 0.00 in0.0 mm 0.00 in0.0 mm 0.13 in3.3 mm
07:48 PM 45.0°F7.2°C 44.4°F6.9°C 98% 9.8 mph N15.8 kmh N 14.8 mph23.8 kmh 30.06 in1017.9 mb 0.00 in0.0 mm 0.00 in0.0 mm 0.13 in3.3 mm
07:58 PM 44.5°F6.9°C 43.9°F6.6°C 98% 8.5 mph NE13.7 kmh NE 14.4 mph23.2 kmh 30.09 in1019.0 mb 0.00 in0.0 mm 0.00 in0.0 mm 0.13 in3.3 mm
08:03 PM 44.3°F6.8°C 43.7°F6.5°C 98% 8.0 mph NNE12.9 kmh NNE 14.4 mph23.2 kmh 30.09 in1019.0 mb 0.00 in0.0 mm 0.00 in0.0 mm 0.13 in3.3 mm
08:08 PM 44.1°F6.7°C 43.5°F6.4°C 98% 9.2 mph NE14.8 kmh NE 13.4 mph21.6 kmh 30.09 in1019.0 mb 0.00 in0.0 mm 0.00 in0.0 mm 0.13 in3.3 mm
08:38 PM 43.6°F6.4°C 43.0°F6.1°C 98% 7.2 mph NNE11.6 kmh NNE 12.6 mph20.3 kmh 30.09 in1019.0 mb 0.00 in0.0 mm 0.00 in0.0 mm 0.13 in3.3 mm
08:46 PM 43.4°F6.3°C 42.8°F6.0°C 98% 8.1 mph N13.0 kmh N 13.0 mph20.9 kmh 30.09 in1019.0 mb 0.00 in0.0 mm 0.00 in0.0 mm 0.13 in3.3 mm
08:51 PM 43.4°F6.3°C 42.8°F6.0°C 98% 7.5 mph NNE12.1 kmh NNE 14.8 mph23.8 kmh 30.09 in1019.0 mb 0.00 in0.0 mm 0.00 in0.0 mm 0.13 in3.3 mm
08:56 PM 43.2°F6.2°C 42.6°F5.9°C 98% 11.8 mph NNE19.0 kmh NNE 14.8 mph23.8 kmh 30.09 in1019.0 mb 0.00 in0.0 mm 0.00 in0.0 mm 0.13 in3.3 mm
09:01 PM 43.1°F6.2°C 42.5°F5.8°C 98% 8.1 mph NE13.0 kmh NE 14.4 mph23.2 kmh 30.09 in1019.0 mb 0.00 in0.0 mm 0.00 in0.0 mm 0.13 in3.3 mm
09:25 PM 42.9°F6.1°C 42.3°F5.7°C 98% 4.5 mph NNE7.2 kmh NNE 9.8 mph15.8 kmh 30.09 in1019.0 mb 0.00 in0.0 mm 0.00 in0.0 mm 0.13 in3.3 mm
09:30 PM 42.9°F6.1°C 42.3°F5.7°C 98% 4.1 mph ENE6.6 kmh ENE 8.0 mph12.9 kmh 30.06 in1017.9 mb 0.00 in0.0 mm 0.00 in0.0 mm 0.13 in3.3 mm
09:35 PM 42.9°F6.1°C 42.3°F5.7°C 98% 8.2 mph N13.2 kmh N 12.6 mph20.3 kmh 30.06 in1017.9 mb 0.00 in0.0 mm 0.00 in0.0 mm 0.13 in3.3 mm
09:40 PM 42.9°F6.1°C 42.3°F5.7°C 98% 5.5 mph NE8.9 kmh NE 12.6 mph20.3 kmh 30.06 in1017.9 mb 0.00 in0.0 mm 0.00 in0.0 mm 0.13 in3.3 mm
09:45 PM 42.9°F6.1°C 42.3°F5.7°C 98% 6.0 mph NE9.7 kmh NE 11.6 mph18.7 kmh 30.09 in1019.0 mb 0.00 in0.0 mm 0.00 in0.0 mm 0.13 in3.3 mm
10:10 PM 42.7°F5.9°C 42.1°F5.6°C 98% 9.8 mph NNE15.8 kmh NNE 17.0 mph27.4 kmh 30.09 in1019.0 mb 0.00 in0.0 mm 0.00 in0.0 mm 0.13 in3.3 mm
10:15 PM 42.7°F5.9°C 42.1°F5.6°C 98% 5.3 mph NE8.5 kmh NE 17.0 mph27.4 kmh 30.06 in1017.9 mb 0.00 in0.0 mm 0.00 in0.0 mm 0.13 in3.3 mm
10:20 PM 42.3°F5.7°C 41.7°F5.4°C 98% 8.1 mph NE13.0 kmh NE 14.4 mph23.2 kmh 30.06 in1017.9 mb 0.00 in0.0 mm 0.00 in0.0 mm 0.13 in3.3 mm
10:25 PM 42.3°F5.7°C 41.7°F5.4°C 98% 7.2 mph NE11.6 kmh NE 13.0 mph20.9 kmh 30.06 in1017.9 mb 0.00 in0.0 mm 0.00 in0.0 mm 0.13 in3.3 mm
10:53 PM 42.0°F5.6°C 41.4°F5.2°C 98% 5.7 mph NE9.2 kmh NE 8.0 mph12.9 kmh 30.06 in1017.9 mb 0.00 in0.0 mm 0.00 in0.0 mm 0.13 in3.3 mm
10:59 PM 42.0°F5.6°C 41.4°F5.2°C 98% 4.6 mph ENE7.4 kmh ENE 8.0 mph12.9 kmh 30.09 in1019.0 mb 0.00 in0.0 mm 0.00 in0.0 mm 0.13 in3.3 mm
11:04 PM 42.0°F5.6°C 41.4°F5.2°C 98% 3.8 mph NE6.1 kmh NE 6.2 mph10.0 kmh 30.09 in1019.0 mb 0.00 in0.0 mm 0.00 in0.0 mm 0.13 in3.3 mm
11:10 PM 42.0°F5.6°C 41.4°F5.2°C 98% 2.7 mph ENE4.3 kmh ENE 6.2 mph10.0 kmh 30.09 in1019.0 mb 0.00 in0.0 mm 0.00 in0.0 mm 0.13 in3.3 mm
11:32 PM 41.6°F5.3°C 41.0°F5.0°C 98% 7.5 mph NNE12.1 kmh NNE 12.6 mph20.3 kmh 30.12 in1020.0 mb 0.00 in0.0 mm 0.00 in0.0 mm 0.13 in3.3 mm
11:37 PM 41.6°F5.3°C 41.0°F5.0°C 98% 2.5 mph ENE4.0 kmh ENE 11.2 mph18.0 kmh 30.12 in1020.0 mb 0.00 in0.0 mm 0.00 in0.0 mm 0.13 in3.3 mm
11:42 PM 41.6°F5.3°C 41.0°F5.0°C 98% 3.6 mph ESE5.8 kmh ESE 6.8 mph10.9 kmh 30.06 in1017.9 mb 0.00 in0.0 mm 0.00 in0.0 mm 0.13 in3.3 mm
11:47 PM 41.6°F5.3°C 41.0°F5.0°C 98% 2.4 mph E3.9 kmh E 5.8 mph9.3 kmh 30.06 in1017.9 mb 0.00 in0.0 mm 0.00 in0.0 mm 0.13 in3.3 mm
11:52 PM 41.6°F5.3°C 41.0°F5.0°C 98% 5.1 mph SSE8.2 kmh SSE 7.2 mph11.6 kmh 30.06 in1017.9 mb 0.00 in0.0 mm 0.00 in0.0 mm 0.13 in3.3 mm
11:57 PM 41.6°F5.3°C 41.0°F5.0°C 98% 6.0 mph SSE9.7 kmh SSE 8.6 mph13.8 kmh 30.09 in1019.0 mb 0.00 in0.0 mm 0.00 in0.0 mm 0.13 in3.3 mm